Terminal Aerodrome Forecast
Issued by NWS

Home | Current Version | Previous Version | Text Only | Print | Product List | Glossary On
Versions: 1 2 3 4 5 6 7 8 9 10 11 12 13 14 15 16 17 18 19 20 21 22 23 24 25 26 27 28 29 30 31 32 33 34 35 36 37 38 39 40 41 42 43 44 45 46 47 48 49 50
000
FTUS43 KLOT 230523
TAFMDW
TAF
KMDW 230523Z 2306/2412 18005KT 2SM -RA BR OVC007
     FM230900 VRB04KT 1 1/2SM -RA BR OVC005
     FM231500 33010KT 2SM -SHSN OVC008
     FM231800 30012G20KT P6SM OVC015
     FM240000 30009KT P6SM BKN025=

USA.gov is the U.S. government's official web portal to all federal, state and local government web resources and services.